sensor_id;sensor_type;location;lat;lon;timestamp;P1;durP1;ratioP1;P2;durP2;ratioP2
32788;SDS011;19141;48.980;8.410;2023-05-19T04:22:32;3.85;;;2.15;;
32788;SDS011;19141;48.980;8.410;2023-05-19T04:24:58;4.65;;;2.70;;
32788;SDS011;19141;48.980;8.410;2023-05-19T04:27:24;7.82;;;2.85;;
32788;SDS011;19141;48.980;8.410;2023-05-19T04:29:52;3.58;;;2.60;;
32788;SDS011;19141;48.980;8.410;2023-05-19T04:32:19;6.28;;;2.78;;
32788;SDS011;19141;48.980;8.410;2023-05-19T04:34:44;5.63;;;2.90;;
32788;SDS011;19141;48.980;8.410;2023-05-19T04:37:13;5.15;;;2.50;;
32788;SDS011;19141;48.980;8.410;2023-05-19T04:39:40;3.50;;;2.50;;
32788;SDS011;19141;48.980;8.410;2023-05-19T04:42:11;5.10;;;2.78;;
32788;SDS011;19141;48.980;8.410;2023-05-19T04:44:38;6.80;;;3.00;;
32788;SDS011;19141;48.980;8.410;2023-05-19T04:47:05;7.38;;;3.13;;
32788;SDS011;19141;48.980;8.410;2023-05-19T04:49:33;3.72;;;2.92;;
32788;SDS011;19141;48.980;8.410;2023-05-19T04:52:06;4.25;;;2.58;;
32788;SDS011;19141;48.980;8.410;2023-05-19T04:54:37;4.90;;;3.30;;
32788;SDS011;19141;48.980;8.410;2023-05-19T04:57:04;6.68;;;3.00;;
32788;SDS011;19141;48.980;8.410;2023-05-19T04:59:33;4.60;;;2.97;;
32788;SDS011;19141;48.980;8.410;2023-05-19T05:01:58;4.32;;;2.70;;
32788;SDS011;19141;48.980;8.410;2023-05-19T05:04:26;4.53;;;2.90;;
32788;SDS011;19141;48.980;8.410;2023-05-19T05:06:52;8.48;;;3.05;;
32788;SDS011;19141;48.980;8.410;2023-05-19T05:09:19;4.18;;;3.10;;
32788;SDS011;19141;48.980;8.410;2023-05-19T05:11:45;4.65;;;2.70;;
32788;SDS011;19141;48.980;8.410;2023-05-19T05:14:10;8.18;;;3.03;;
32788;SDS011;19141;48.980;8.410;2023-05-19T05:16:36;7.07;;;2.88;;
32788;SDS011;19141;48.980;8.410;2023-05-19T05:19:03;7.22;;;3.95;;
32788;SDS011;19141;48.980;8.410;2023-05-19T05:21:29;4.28;;;2.70;;
32788;SDS011;19141;48.980;8.410;2023-05-19T05:23:57;4.65;;;3.20;;
32788;SDS011;19141;48.980;8.410;2023-05-19T05:26:27;3.97;;;2.65;;
32788;SDS011;19141;48.980;8.410;2023-05-19T05:28:55;7.45;;;2.75;;
32788;SDS011;19141;48.980;8.410;2023-05-19T05:31:20;7.43;;;3.33;;
32788;SDS011;19141;48.980;8.410;2023-05-19T05:33:46;4.80;;;3.13;;
32788;SDS011;19141;48.980;8.410;2023-05-19T05:36:13;6.68;;;2.78;;
32788;SDS011;19141;48.980;8.410;2023-05-19T05:38:38;4.95;;;2.88;;
32788;SDS011;19141;48.980;8.410;2023-05-19T05:41:04;5.20;;;2.72;;
32788;SDS011;19141;48.980;8.410;2023-05-19T05:43:31;8.37;;;3.47;;
32788;SDS011;19141;48.980;8.410;2023-05-19T05:45:59;4.30;;;3.00;;
32788;SDS011;19141;48.980;8.410;2023-05-19T05:48:25;3.33;;;2.78;;
32788;SDS011;19141;48.980;8.410;2023-05-19T05:50:51;4.28;;;3.22;;
32788;SDS011;19141;48.980;8.410;2023-05-19T05:53:23;7.55;;;3.70;;
32788;SDS011;19141;48.980;8.410;2023-05-19T05:55:52;5.22;;;3.60;;
32788;SDS011;19141;48.980;8.410;2023-05-19T06:00:47;9.77;;;4.95;;
32788;SDS011;19141;48.980;8.410;2023-05-19T06:03:13;7.30;;;3.83;;
32788;SDS011;19141;48.980;8.410;2023-05-19T06:05:41;9.32;;;3.45;;
32788;SDS011;19141;48.980;8.410;2023-05-19T06:08:08;7.57;;;3.78;;
32788;SDS011;19141;48.980;8.410;2023-05-19T06:10:34;5.85;;;3.28;;
32788;SDS011;19141;48.980;8.410;2023-05-19T06:13:01;4.22;;;2.80;;
32788;SDS011;19141;48.980;8.410;2023-05-19T06:15:26;6.70;;;3.22;;
32788;SDS011;19141;48.980;8.410;2023-05-19T06:18:10;8.65;;;3.22;;
32788;SDS011;19141;48.980;8.410;2023-05-19T06:20:37;5.78;;;3.20;;
32788;SDS011;19141;48.980;8.410;2023-05-19T06:23:03;9.70;;;3.05;;
32788;SDS011;19141;48.980;8.410;2023-05-19T06:25:28;3.67;;;2.58;;
32788;SDS011;19141;48.980;8.410;2023-05-19T06:27:55;4.72;;;3.03;;
32788;SDS011;19141;48.980;8.410;2023-05-19T06:30:21;6.45;;;3.95;;
32788;SDS011;19141;48.980;8.410;2023-05-19T06:33:04;6.25;;;3.00;;
32788;SDS011;19141;48.980;8.410;2023-05-19T06:35:31;10.85;;;3.25;;
32788;SDS011;19141;48.980;8.410;2023-05-19T06:37:56;5.68;;;3.15;;
32788;SDS011;19141;48.980;8.410;2023-05-19T06:40:22;7.38;;;2.97;;
32788;SDS011;19141;48.980;8.410;2023-05-19T06:42:47;7.15;;;3.17;;
32788;SDS011;19141;48.980;8.410;2023-05-19T06:45:33;5.07;;;3.05;;
32788;SDS011;19141;48.980;8.410;2023-05-19T06:48:02;4.00;;;3.05;;
32788;SDS011;19141;48.980;8.410;2023-05-19T06:50:28;3.95;;;2.30;;
32788;SDS011;19141;48.980;8.410;2023-05-19T06:52:53;3.60;;;2.42;;
32788;SDS011;19141;48.980;8.410;2023-05-19T06:55:19;15.35;;;2.90;;
32788;SDS011;19141;48.980;8.410;2023-05-19T06:57:47;2.90;;;2.30;;
32788;SDS011;19141;48.980;8.410;2023-05-19T07:00:13;3.92;;;2.70;;
32788;SDS011;19141;48.980;8.410;2023-05-19T07:02:43;3.80;;;2.92;;
32788;SDS011;19141;48.980;8.410;2023-05-19T07:05:09;3.83;;;2.92;;
32788;SDS011;19141;48.980;8.410;2023-05-19T07:07:35;4.35;;;2.90;;
32788;SDS011;19141;48.980;8.410;2023-05-19T07:10:01;4.25;;;2.55;;
32788;SDS011;19141;48.980;8.410;2023-05-19T07:12:28;3.45;;;2.45;;
32788;SDS011;19141;48.980;8.410;2023-05-19T07:14:54;5.13;;;2.50;;
32788;SDS011;19141;48.980;8.410;2023-05-19T07:17:21;4.70;;;3.20;;
32788;SDS011;19141;48.980;8.410;2023-05-19T07:19:47;5.30;;;2.70;;
32788;SDS011;19141;48.980;8.410;2023-05-19T07:22:13;7.88;;;2.67;;
32788;SDS011;19141;48.980;8.410;2023-05-19T07:24:38;6.88;;;3.00;;
32788;SDS011;19141;48.980;8.410;2023-05-19T07:27:04;4.68;;;2.53;;
32788;SDS011;19141;48.980;8.410;2023-05-19T07:29:30;5.80;;;2.25;;
32788;SDS011;19141;48.980;8.410;2023-05-19T07:31:55;5.03;;;2.45;;
32788;SDS011;19141;48.980;8.410;2023-05-19T07:34:24;4.57;;;2.72;;
32788;SDS011;19141;48.980;8.410;2023-05-19T07:36:50;4.65;;;2.60;;
32788;SDS011;19141;48.980;8.410;2023-05-19T07:39:18;5.93;;;2.45;;
32788;SDS011;19141;48.980;8.410;2023-05-19T07:41:43;8.88;;;2.83;;
32788;SDS011;19141;48.980;8.410;2023-05-19T07:44:09;2.97;;;2.10;;
32788;SDS011;19141;48.980;8.410;2023-05-19T07:46:35;6.50;;;2.42;;
32788;SDS011;19141;48.980;8.410;2023-05-19T07:49:01;3.03;;;2.17;;
32788;SDS011;19141;48.980;8.410;2023-05-19T07:51:27;4.43;;;2.72;;
32788;SDS011;19141;48.980;8.410;2023-05-19T07:53:53;2.15;;;1.92;;
32788;SDS011;19141;48.980;8.410;2023-05-19T07:56:18;4.05;;;2.40;;
32788;SDS011;19141;48.980;8.410;2023-05-19T07:58:43;6.03;;;2.40;;
32788;SDS011;19141;48.980;8.410;2023-05-19T08:01:09;6.43;;;2.97;;
32788;SDS011;19141;48.980;8.410;2023-05-19T08:03:34;9.35;;;4.40;;
32788;SDS011;19141;48.980;8.410;2023-05-19T08:06:00;8.10;;;3.08;;
32788;SDS011;19141;48.980;8.410;2023-05-19T08:08:25;6.15;;;3.13;;
32788;SDS011;19141;48.980;8.410;2023-05-19T08:10:50;4.32;;;2.60;;
32788;SDS011;19141;48.980;8.410;2023-05-19T08:13:16;6.13;;;2.95;;
32788;SDS011;19141;48.980;8.410;2023-05-19T08:15:41;4.32;;;2.63;;
32788;SDS011;19141;48.980;8.410;2023-05-19T08:18:07;5.63;;;2.67;;
32788;SDS011;19141;48.980;8.410;2023-05-19T08:20:32;5.93;;;2.42;;
32788;SDS011;19141;48.980;8.410;2023-05-19T08:22:58;3.85;;;2.75;;
32788;SDS011;19141;48.980;8.410;2023-05-19T08:25:23;3.78;;;2.65;;
32788;SDS011;19141;48.980;8.410;2023-05-19T08:27:49;4.72;;;2.05;;
32788;SDS011;19141;48.980;8.410;2023-05-19T08:30:14;7.28;;;3.05;;
32788;SDS011;19141;48.980;8.410;2023-05-19T08:32:40;7.47;;;2.72;;
32788;SDS011;19141;48.980;8.410;2023-05-19T08:35:05;4.30;;;2.30;;
32788;SDS011;19141;48.980;8.410;2023-05-19T08:37:31;8.82;;;2.33;;
32788;SDS011;19141;48.980;8.410;2023-05-19T08:39:57;4.35;;;2.22;;
32788;SDS011;19141;48.980;8.410;2023-05-19T08:42:23;4.63;;;2.38;;
32788;SDS011;19141;48.980;8.410;2023-05-19T08:44:48;7.32;;;2.53;;
32788;SDS011;19141;48.980;8.410;2023-05-19T08:47:14;8.27;;;2.55;;
32788;SDS011;19141;48.980;8.410;2023-05-19T08:49:43;4.35;;;2.15;;
32788;SDS011;19141;48.980;8.410;2023-05-19T08:57:37;7.28;;;2.13;;
32788;SDS011;19141;48.980;8.410;2023-05-19T09:00:05;5.43;;;2.75;;
32788;SDS011;19141;48.980;8.410;2023-05-19T09:02:36;4.07;;;2.20;;
32788;SDS011;19141;48.980;8.410;2023-05-19T09:05:03;5.35;;;2.60;;
32788;SDS011;19141;48.980;8.410;2023-05-19T09:07:30;7.85;;;2.88;;
32788;SDS011;19141;48.980;8.410;2023-05-19T09:09:59;5.78;;;2.67;;
32788;SDS011;19141;48.980;8.410;2023-05-19T09:12:25;7.35;;;2.58;;
32788;SDS011;19141;48.980;8.410;2023-05-19T09:14:51;5.10;;;2.38;;
32788;SDS011;19141;48.980;8.410;2023-05-19T09:17:16;4.07;;;2.03;;
32788;SDS011;19141;48.980;8.410;2023-05-19T09:19:46;5.43;;;2.55;;
32788;SDS011;19141;48.980;8.410;2023-05-19T09:22:17;3.45;;;1.92;;
32788;SDS011;19141;48.980;8.410;2023-05-19T09:24:45;6.03;;;2.88;;
32788;SDS011;19141;48.980;8.410;2023-05-19T09:27:19;4.18;;;2.17;;
32788;SDS011;19141;48.980;8.410;2023-05-19T09:29:47;7.75;;;2.70;;
32788;SDS011;19141;48.980;8.410;2023-05-19T09:32:12;5.28;;;1.83;;
32788;SDS011;19141;48.980;8.410;2023-05-19T09:34:48;6.38;;;2.38;;
32788;SDS011;19141;48.980;8.410;2023-05-19T09:37:15;5.90;;;2.75;;
32788;SDS011;19141;48.980;8.410;2023-05-19T09:39:40;6.45;;;2.05;;
32788;SDS011;19141;48.980;8.410;2023-05-19T09:42:13;4.22;;;2.20;;
32788;SDS011;19141;48.980;8.410;2023-05-19T09:44:38;5.72;;;2.55;;
32788;SDS011;19141;48.980;8.410;2023-05-19T09:47:05;2.97;;;1.98;;
32788;SDS011;19141;48.980;8.410;2023-05-19T09:49:33;4.57;;;2.10;;
32788;SDS011;19141;48.980;8.410;2023-05-19T09:52:01;3.75;;;2.03;;
32788;SDS011;19141;48.980;8.410;2023-05-19T09:54:27;2.80;;;2.10;;
32788;SDS011;19141;48.980;8.410;2023-05-19T09:56:59;5.40;;;2.10;;
32788;SDS011;19141;48.980;8.410;2023-05-19T09:59:26;3.78;;;1.95;;
32788;SDS011;19141;48.980;8.410;2023-05-19T10:01:57;4.38;;;2.10;;
32788;SDS011;19141;48.980;8.410;2023-05-19T10:04:24;3.45;;;2.15;;
32788;SDS011;19141;48.980;8.410;2023-05-19T10:06:53;2.63;;;1.73;;
32788;SDS011;19141;48.980;8.410;2023-05-19T10:09:23;4.10;;;2.30;;
32788;SDS011;19141;48.980;8.410;2023-05-19T10:11:52;5.65;;;2.05;;
32788;SDS011;19141;48.980;8.410;2023-05-19T10:14:22;4.78;;;1.92;;
32788;SDS011;19141;48.980;8.410;2023-05-19T10:16:52;5.47;;;2.22;;
32788;SDS011;19141;48.980;8.410;2023-05-19T10:19:20;2.72;;;1.80;;
32788;SDS011;19141;48.980;8.410;2023-05-19T10:21:47;5.25;;;1.80;;
32788;SDS011;19141;48.980;8.410;2023-05-19T10:24:12;4.82;;;1.80;;
32788;SDS011;19141;48.980;8.410;2023-05-19T10:26:59;3.10;;;1.83;;
32788;SDS011;19141;48.980;8.410;2023-05-19T10:29:33;2.78;;;1.63;;
32788;SDS011;19141;48.980;8.410;2023-05-19T10:32:03;5.43;;;1.85;;
32788;SDS011;19141;48.980;8.410;2023-05-19T10:37:14;4.32;;;1.88;;
32788;SDS011;19141;48.980;8.410;2023-05-19T10:39:48;3.78;;;2.00;;
32788;SDS011;19141;48.980;8.410;2023-05-19T10:42:15;4.25;;;2.08;;
32788;SDS011;19141;48.980;8.410;2023-05-19T10:50:04;2.20;;;1.67;;
32788;SDS011;19141;48.980;8.410;2023-05-19T10:52:30;2.88;;;1.70;;
32788;SDS011;19141;48.980;8.410;2023-05-19T10:55:01;2.55;;;1.38;;
32788;SDS011;19141;48.980;8.410;2023-05-19T10:57:26;2.65;;;1.80;;
32788;SDS011;19141;48.980;8.410;2023-05-19T10:59:52;4.57;;;1.70;;
32788;SDS011;19141;48.980;8.410;2023-05-19T11:07:41;3.05;;;1.83;;
32788;SDS011;19141;48.980;8.410;2023-05-19T11:10:08;5.40;;;1.95;;
32788;SDS011;19141;48.980;8.410;2023-05-19T11:12:41;4.88;;;1.65;;
32788;SDS011;19141;48.980;8.410;2023-05-19T11:15:12;2.88;;;1.80;;
32788;SDS011;19141;48.980;8.410;2023-05-19T11:17:39;3.67;;;1.70;;
32788;SDS011;19141;48.980;8.410;2023-05-19T11:20:06;4.78;;;2.10;;
32788;SDS011;19141;48.980;8.410;2023-05-19T11:22:35;3.30;;;1.83;;
32788;SDS011;19141;48.980;8.410;2023-05-19T11:25:01;2.88;;;1.42;;
32788;SDS011;19141;48.980;8.410;2023-05-19T11:27:28;4.22;;;2.25;;
32788;SDS011;19141;48.980;8.410;2023-05-19T11:32:33;3.13;;;2.00;;
32788;SDS011;19141;48.980;8.410;2023-05-19T11:35:00;4.78;;;2.03;;
32788;SDS011;19141;48.980;8.410;2023-05-19T11:37:26;3.78;;;1.83;;
32788;SDS011;19141;48.980;8.410;2023-05-19T11:39:56;3.20;;;1.85;;
32788;SDS011;19141;48.980;8.410;2023-05-19T11:42:22;2.33;;;1.75;;
32788;SDS011;19141;48.980;8.410;2023-05-19T11:44:47;2.20;;;1.40;;
32788;SDS011;19141;48.980;8.410;2023-05-19T11:47:13;3.17;;;1.52;;
32788;SDS011;19141;48.980;8.410;2023-05-19T11:49:49;4.97;;;1.75;;
32788;SDS011;19141;48.980;8.410;2023-05-19T11:52:22;6.57;;;1.75;;
32788;SDS011;19141;48.980;8.410;2023-05-19T11:54:48;2.78;;;1.50;;
32788;SDS011;19141;48.980;8.410;2023-05-19T11:57:14;5.30;;;1.80;;
32788;SDS011;19141;48.980;8.410;2023-05-19T11:59:39;2.38;;;1.50;;
32788;SDS011;19141;48.980;8.410;2023-05-19T12:02:16;4.20;;;1.80;;
32788;SDS011;19141;48.980;8.410;2023-05-19T12:04:52;5.22;;;1.85;;
32788;SDS011;19141;48.980;8.410;2023-05-19T12:07:19;3.60;;;1.60;;
32788;SDS011;19141;48.980;8.410;2023-05-19T12:09:48;2.58;;;2.25;;
32788;SDS011;19141;48.980;8.410;2023-05-19T12:12:15;3.22;;;1.70;;
32788;SDS011;19141;48.980;8.410;2023-05-19T12:14:42;2.60;;;1.80;;
32788;SDS011;19141;48.980;8.410;2023-05-19T12:17:13;2.47;;;1.80;;
32788;SDS011;19141;48.980;8.410;2023-05-19T12:19:45;3.08;;;1.40;;
32788;SDS011;19141;48.980;8.410;2023-05-19T12:22:12;3.08;;;1.75;;
32788;SDS011;19141;48.980;8.410;2023-05-19T12:24:39;5.65;;;1.98;;
32788;SDS011;19141;48.980;8.410;2023-05-19T12:29:31;4.07;;;2.08;;
32788;SDS011;19141;48.980;8.410;2023-05-19T12:31:56;3.40;;;2.10;;
32788;SDS011;19141;48.980;8.410;2023-05-19T12:34:22;3.92;;;1.52;;
32788;SDS011;19141;48.980;8.410;2023-05-19T12:36:47;4.03;;;1.85;;
32788;SDS011;19141;48.980;8.410;2023-05-19T12:39:13;3.47;;;1.83;;
32788;SDS011;19141;48.980;8.410;2023-05-19T12:41:39;3.83;;;2.08;;
32788;SDS011;19141;48.980;8.410;2023-05-19T12:44:14;2.28;;;1.80;;
32788;SDS011;19141;48.980;8.410;2023-05-19T12:46:40;4.03;;;1.98;;
32788;SDS011;19141;48.980;8.410;2023-05-19T12:49:05;2.58;;;1.60;;
32788;SDS011;19141;48.980;8.410;2023-05-19T12:51:30;3.22;;;2.05;;
32788;SDS011;19141;48.980;8.410;2023-05-19T12:53:56;5.15;;;2.25;;
32788;SDS011;19141;48.980;8.410;2023-05-19T12:56:23;4.68;;;2.47;;
32788;SDS011;19141;48.980;8.410;2023-05-19T12:58:54;5.10;;;2.42;;
32788;SDS011;19141;48.980;8.410;2023-05-19T13:01:19;8.20;;;1.95;;
32788;SDS011;19141;48.980;8.410;2023-05-19T13:03:46;3.42;;;1.80;;
32788;SDS011;19141;48.980;8.410;2023-05-19T13:06:12;4.45;;;1.65;;
32788;SDS011;19141;48.980;8.410;2023-05-19T13:08:37;4.38;;;1.73;;
32788;SDS011;19141;48.980;8.410;2023-05-19T13:11:04;6.63;;;2.10;;
32788;SDS011;19141;48.980;8.410;2023-05-19T13:13:29;9.23;;;2.17;;
32788;SDS011;19141;48.980;8.410;2023-05-19T13:15:54;4.97;;;2.40;;
32788;SDS011;19141;48.980;8.410;2023-05-19T13:18:20;3.70;;;2.08;;
32788;SDS011;19141;48.980;8.410;2023-05-19T13:20:46;3.90;;;1.80;;
32788;SDS011;19141;48.980;8.410;2023-05-19T13:23:14;3.08;;;2.08;;
32788;SDS011;19141;48.980;8.410;2023-05-19T13:25:40;3.50;;;2.15;;
32788;SDS011;19141;48.980;8.410;2023-05-19T13:28:06;4.47;;;2.45;;
32788;SDS011;19141;48.980;8.410;2023-05-19T13:30:32;2.70;;;2.10;;
32788;SDS011;19141;48.980;8.410;2023-05-19T13:32:58;8.27;;;2.50;;
32788;SDS011;19141;48.980;8.410;2023-05-19T13:35:24;2.40;;;2.00;;
32788;SDS011;19141;48.980;8.410;2023-05-19T13:37:49;6.05;;;1.95;;
32788;SDS011;19141;48.980;8.410;2023-05-19T13:40:15;3.10;;;1.70;;
32788;SDS011;19141;48.980;8.410;2023-05-19T13:42:41;4.95;;;1.80;;
32788;SDS011;19141;48.980;8.410;2023-05-19T13:45:07;4.75;;;1.95;;
32788;SDS011;19141;48.980;8.410;2023-05-19T13:47:33;3.40;;;1.92;;
32788;SDS011;19141;48.980;8.410;2023-05-19T13:49:59;4.82;;;2.35;;
32788;SDS011;19141;48.980;8.410;2023-05-19T13:52:24;6.13;;;2.10;;
32788;SDS011;19141;48.980;8.410;2023-05-19T13:54:50;4.95;;;2.65;;
32788;SDS011;19141;48.980;8.410;2023-05-19T13:57:18;4.70;;;2.78;;
32788;SDS011;19141;48.980;8.410;2023-05-19T13:59:43;4.28;;;2.05;;
32788;SDS011;19141;48.980;8.410;2023-05-19T14:02:09;3.03;;;2.15;;
32788;SDS011;19141;48.980;8.410;2023-05-19T14:04:38;3.53;;;1.98;;
32788;SDS011;19141;48.980;8.410;2023-05-19T14:07:04;4.35;;;2.10;;
32788;SDS011;19141;48.980;8.410;2023-05-19T14:09:30;4.75;;;2.00;;
32788;SDS011;19141;48.980;8.410;2023-05-19T14:11:56;3.72;;;1.80;;
32788;SDS011;19141;48.980;8.410;2023-05-19T14:14:21;5.15;;;2.15;;
32788;SDS011;19141;48.980;8.410;2023-05-19T14:16:46;3.83;;;1.98;;
32788;SDS011;19141;48.980;8.410;2023-05-19T14:19:12;2.72;;;2.10;;
32788;SDS011;19141;48.980;8.410;2023-05-19T14:21:38;3.47;;;1.80;;
32788;SDS011;19141;48.980;8.410;2023-05-19T14:24:04;2.15;;;1.55;;
32788;SDS011;19141;48.980;8.410;2023-05-19T14:26:29;2.38;;;1.80;;
32788;SDS011;19141;48.980;8.410;2023-05-19T14:28:55;4.05;;;2.10;;
32788;SDS011;19141;48.980;8.410;2023-05-19T14:31:21;3.60;;;2.03;;
32788;SDS011;19141;48.980;8.410;2023-05-19T14:33:46;4.30;;;1.60;;
32788;SDS011;19141;48.980;8.410;2023-05-19T14:36:12;2.05;;;1.63;;
32788;SDS011;19141;48.980;8.410;2023-05-19T14:38:37;4.50;;;2.20;;
32788;SDS011;19141;48.980;8.410;2023-05-19T14:41:02;4.28;;;1.95;;
32788;SDS011;19141;48.980;8.410;2023-05-19T14:43:28;5.00;;;1.88;;
32788;SDS011;19141;48.980;8.410;2023-05-19T14:45:53;4.60;;;2.05;;
32788;SDS011;19141;48.980;8.410;2023-05-19T14:48:19;2.67;;;1.90;;
32788;SDS011;19141;48.980;8.410;2023-05-19T14:50:47;3.58;;;2.00;;
32788;SDS011;19141;48.980;8.410;2023-05-19T14:53:13;4.05;;;2.00;;
32788;SDS011;19141;48.980;8.410;2023-05-19T14:55:38;3.10;;;1.80;;
32788;SDS011;19141;48.980;8.410;2023-05-19T14:58:04;6.93;;;1.80;;
32788;SDS011;19141;48.980;8.410;2023-05-19T15:00:30;2.33;;;1.75;;
32788;SDS011;19141;48.980;8.410;2023-05-19T15:02:55;4.35;;;2.15;;
32788;SDS011;19141;48.980;8.410;2023-05-19T15:05:21;3.83;;;2.17;;
32788;SDS011;19141;48.980;8.410;2023-05-19T15:07:48;2.15;;;1.80;;
32788;SDS011;19141;48.980;8.410;2023-05-19T15:10:13;2.65;;;1.70;;
32788;SDS011;19141;48.980;8.410;2023-05-19T15:12:40;3.92;;;1.83;;
32788;SDS011;19141;48.980;8.410;2023-05-19T15:15:06;5.60;;;2.20;;
32788;SDS011;19141;48.980;8.410;2023-05-19T15:17:31;3.92;;;2.15;;
32788;SDS011;19141;48.980;8.410;2023-05-19T15:19:57;2.65;;;1.80;;
32788;SDS011;19141;48.980;8.410;2023-05-19T15:22:22;4.57;;;1.98;;
32788;SDS011;19141;48.980;8.410;2023-05-19T15:24:48;2.95;;;1.77;;
32788;SDS011;19141;48.980;8.410;2023-05-19T15:27:13;4.55;;;1.88;;
32788;SDS011;19141;48.980;8.410;2023-05-19T15:29:38;4.45;;;2.25;;
32788;SDS011;19141;48.980;8.410;2023-05-19T15:32:04;4.78;;;1.73;;
32788;SDS011;19141;48.980;8.410;2023-05-19T15:34:30;2.97;;;1.50;;
32788;SDS011;19141;48.980;8.410;2023-05-19T15:36:55;4.22;;;1.90;;
32788;SDS011;19141;48.980;8.410;2023-05-19T15:39:20;3.55;;;1.92;;
32788;SDS011;19141;48.980;8.410;2023-05-19T15:41:46;4.28;;;2.10;;
32788;SDS011;19141;48.980;8.410;2023-05-19T15:44:11;3.25;;;1.65;;
32788;SDS011;19141;48.980;8.410;2023-05-19T15:46:37;5.35;;;1.80;;
32788;SDS011;19141;48.980;8.410;2023-05-19T15:49:02;4.07;;;1.67;;
32788;SDS011;19141;48.980;8.410;2023-05-19T15:51:28;5.30;;;1.90;;
32788;SDS011;19141;48.980;8.410;2023-05-19T15:53:53;4.85;;;1.70;;
32788;SDS011;19141;48.980;8.410;2023-05-19T15:56:19;3.35;;;2.25;;
32788;SDS011;19141;48.980;8.410;2023-05-19T15:58:45;4.80;;;2.38;;
32788;SDS011;19141;48.980;8.410;2023-05-19T16:01:11;3.08;;;1.95;;
32788;SDS011;19141;48.980;8.410;2023-05-19T16:03:37;3.38;;;1.77;;
32788;SDS011;19141;48.980;8.410;2023-05-19T16:06:02;1.95;;;1.40;;
32788;SDS011;19141;48.980;8.410;2023-05-19T16:08:28;3.67;;;1.70;;
32788;SDS011;19141;48.980;8.410;2023-05-19T16:10:53;5.10;;;1.83;;
32788;SDS011;19141;48.980;8.410;2023-05-19T16:13:19;2.55;;;1.67;;
32788;SDS011;19141;48.980;8.410;2023-05-19T16:15:45;4.07;;;1.60;;
32788;SDS011;19141;48.980;8.410;2023-05-19T16:18:10;2.72;;;1.50;;
32788;SDS011;19141;48.980;8.410;2023-05-19T16:20:36;3.13;;;1.48;;
32788;SDS011;19141;48.980;8.410;2023-05-19T16:23:01;3.13;;;1.67;;
32788;SDS011;19141;48.980;8.410;2023-05-19T16:25:27;4.28;;;1.80;;
32788;SDS011;19141;48.980;8.410;2023-05-19T16:27:53;3.60;;;1.77;;
32788;SDS011;19141;48.980;8.410;2023-05-19T16:30:18;3.67;;;1.90;;
32788;SDS011;19141;48.980;8.410;2023-05-19T16:32:44;2.60;;;1.73;;
32788;SDS011;19141;48.980;8.410;2023-05-19T16:35:09;4.75;;;1.60;;
32788;SDS011;19141;48.980;8.410;2023-05-19T16:37:35;4.30;;;1.83;;
32788;SDS011;19141;48.980;8.410;2023-05-19T16:40:00;2.90;;;1.80;;
32788;SDS011;19141;48.980;8.410;2023-05-19T16:42:25;3.78;;;1.80;;
32788;SDS011;19141;48.980;8.410;2023-05-19T16:44:52;2.78;;;1.80;;
32788;SDS011;19141;48.980;8.410;2023-05-19T16:47:17;3.53;;;1.85;;
32788;SDS011;19141;48.980;8.410;2023-05-19T16:49:43;4.55;;;1.63;;
32788;SDS011;19141;48.980;8.410;2023-05-19T16:52:08;3.17;;;1.73;;
32788;SDS011;19141;48.980;8.410;2023-05-19T16:54:34;2.80;;;1.70;;
32788;SDS011;19141;48.980;8.410;2023-05-19T16:57:00;2.58;;;1.75;;
32788;SDS011;19141;48.980;8.410;2023-05-19T16:59:26;3.28;;;1.90;;
32788;SDS011;19141;48.980;8.410;2023-05-19T17:01:51;2.80;;;1.70;;
32788;SDS011;19141;48.980;8.410;2023-05-19T17:04:16;3.08;;;2.00;;
32788;SDS011;19141;48.980;8.410;2023-05-19T17:06:42;3.40;;;1.77;;
32788;SDS011;19141;48.980;8.410;2023-05-19T17:09:07;3.15;;;1.80;;
32788;SDS011;19141;48.980;8.410;2023-05-19T17:11:33;3.33;;;1.30;;
32788;SDS011;19141;48.980;8.410;2023-05-19T17:13:58;3.40;;;1.75;;
32788;SDS011;19141;48.980;8.410;2023-05-19T17:16:23;5.30;;;1.75;;
32788;SDS011;19141;48.980;8.410;2023-05-19T17:18:49;1.98;;;1.55;;
32788;SDS011;19141;48.980;8.410;2023-05-19T17:21:15;7.68;;;1.70;;
32788;SDS011;19141;48.980;8.410;2023-05-19T17:23:41;2.13;;;1.50;;
32788;SDS011;19141;48.980;8.410;2023-05-19T17:26:07;2.67;;;1.58;;
32788;SDS011;19141;48.980;8.410;2023-05-19T17:28:32;4.57;;;1.50;;
32788;SDS011;19141;48.980;8.410;2023-05-19T17:30:58;3.47;;;1.48;;
32788;SDS011;19141;48.980;8.410;2023-05-19T17:33:23;3.90;;;1.90;;
32788;SDS011;19141;48.980;8.410;2023-05-19T17:35:49;3.10;;;1.60;;
32788;SDS011;19141;48.980;8.410;2023-05-19T17:38:14;4.10;;;1.63;;
32788;SDS011;19141;48.980;8.410;2023-05-19T17:40:40;2.50;;;1.92;;
32788;SDS011;19141;48.980;8.410;2023-05-19T17:43:05;4.53;;;2.05;;
32788;SDS011;19141;48.980;8.410;2023-05-19T17:45:32;1.65;;;1.40;;
32788;SDS011;19141;48.980;8.410;2023-05-19T17:47:57;3.70;;;1.90;;
32788;SDS011;19141;48.980;8.410;2023-05-19T17:50:23;3.83;;;1.83;;
32788;SDS011;19141;48.980;8.410;2023-05-19T17:52:48;4.97;;;2.65;;
32788;SDS011;19141;48.980;8.410;2023-05-19T17:55:14;2.55;;;1.75;;
32788;SDS011;19141;48.980;8.410;2023-05-19T17:57:40;3.78;;;2.00;;
32788;SDS011;19141;48.980;8.410;2023-05-19T18:00:08;6.63;;;2.92;;
32788;SDS011;19141;48.980;8.410;2023-05-19T18:02:34;3.03;;;2.55;;
32788;SDS011;19141;48.980;8.410;2023-05-19T18:05:00;3.58;;;1.90;;
32788;SDS011;19141;48.980;8.410;2023-05-19T18:07:26;6.53;;;3.58;;
32788;SDS011;19141;48.980;8.410;2023-05-19T18:09:53;6.18;;;3.60;;
32788;SDS011;19141;48.980;8.410;2023-05-19T18:12:19;15.77;;;7.68;;
32788;SDS011;19141;48.980;8.410;2023-05-19T18:14:45;8.82;;;4.00;;
32788;SDS011;19141;48.980;8.410;2023-05-19T18:17:11;8.77;;;3.83;;
32788;SDS011;19141;48.980;8.410;2023-05-19T18:19:36;3.22;;;1.95;;
32788;SDS011;19141;48.980;8.410;2023-05-19T18:22:02;4.10;;;1.50;;
32788;SDS011;19141;48.980;8.410;2023-05-19T18:24:28;2.92;;;2.00;;
32788;SDS011;19141;48.980;8.410;2023-05-19T18:26:53;3.67;;;2.17;;
32788;SDS011;19141;48.980;8.410;2023-05-19T18:29:18;4.47;;;2.13;;
32788;SDS011;19141;48.980;8.410;2023-05-19T18:31:44;3.75;;;1.90;;
32788;SDS011;19141;48.980;8.410;2023-05-19T18:34:09;3.90;;;2.55;;
32788;SDS011;19141;48.980;8.410;2023-05-19T18:36:35;4.10;;;2.40;;
32788;SDS011;19141;48.980;8.410;2023-05-19T18:39:00;4.50;;;2.47;;
32788;SDS011;19141;48.980;8.410;2023-05-19T18:41:26;3.53;;;2.30;;
32788;SDS011;19141;48.980;8.410;2023-05-19T18:43:52;4.85;;;1.90;;
32788;SDS011;19141;48.980;8.410;2023-05-19T18:46:18;2.72;;;1.80;;
32788;SDS011;19141;48.980;8.410;2023-05-19T18:48:44;3.88;;;2.20;;
32788;SDS011;19141;48.980;8.410;2023-05-19T18:51:10;3.95;;;2.30;;
32788;SDS011;19141;48.980;8.410;2023-05-19T18:53:35;9.32;;;4.13;;
32788;SDS011;19141;48.980;8.410;2023-05-19T18:56:04;5.90;;;2.08;;
32788;SDS011;19141;48.980;8.410;2023-05-19T18:58:30;4.30;;;2.33;;
32788;SDS011;19141;48.980;8.410;2023-05-19T19:00:56;4.28;;;2.20;;
32788;SDS011;19141;48.980;8.410;2023-05-19T19:03:22;3.08;;;2.08;;
32788;SDS011;19141;48.980;8.410;2023-05-19T19:05:57;3.92;;;2.30;;
32788;SDS011;19141;48.980;8.410;2023-05-19T19:08:23;2.35;;;1.80;;
32788;SDS011;19141;48.980;8.410;2023-05-19T19:10:49;3.20;;;1.73;;
32788;SDS011;19141;48.980;8.410;2023-05-19T19:13:18;2.20;;;1.60;;
32788;SDS011;19141;48.980;8.410;2023-05-19T19:15:44;4.05;;;1.98;;
32788;SDS011;19141;48.980;8.410;2023-05-19T19:18:10;3.92;;;1.90;;
32788;SDS011;19141;48.980;8.410;2023-05-19T19:20:36;2.97;;;2.00;;
32788;SDS011;19141;48.980;8.410;2023-05-19T19:23:01;3.50;;;2.10;;
32788;SDS011;19141;48.980;8.410;2023-05-19T19:25:30;6.05;;;3.17;;
32788;SDS011;19141;48.980;8.410;2023-05-19T19:27:56;3.38;;;2.08;;
32788;SDS011;19141;48.980;8.410;2023-05-19T19:30:22;3.25;;;1.85;;
32788;SDS011;19141;48.980;8.410;2023-05-19T19:32:48;4.10;;;2.42;;